Airports Switzerland Geneva Cointrin International Airport

Geneva Cointrin International Airport (LSGG / GVA)

Facts about Geneva Cointrin International Airport

Name Geneva Cointrin International Airport
City Geneva
Country Switzerland
ICAO code LSGG
IATA code GVA
Elevation 430.0728 meters (1411 feet)

Weather

METAR

Metar data retrieved Friday, 19 July 2024 at 23:25 UTC (11 minutes ago)

LSGG 192320Z AUTO VRB01KT CAVOK 20/16 Q1016 NOSIG

Live traffic

Navigraph Charts (account required)